Overseas Long Beach — WAAT — position and weather

sailwx.info

Track history (hours):
 
Tides and Currents Weather Stations Pressure Air Temp Water Temp Dewpoint Dewpoint Depression Visibility Wind Speed Wind Dir Waves Ship Positions

Overseas Long Beach

Owner: ASC Leasing II, Inc., Philadelphia, PA. More information available from US FCC via Universal Licensing System and Coast Guard Vessel Documentation Center.

Last reported at 2015-Jul-31 01:29 UTC. Time now 2015-Jul-31 13:24 UTC.
Position N 29°39' W 089°57'.

Length 181 m; draft 7.7 m.

Type: Tanker. MMSI: 367703000.

Date/timePositionNaut miles runAvg speedWind from/ knotsBaromVisibWave heightAir tempDewpointWater temp
2015-Jul-31 01:29N 29°39' W 089°57'19 9.8
2015-Jul-30 23:31N 29°57' W 090°04'  
2015-Jul-28 10:29N 29°55' W 090°05'8 7.7
2015-Jul-28 09:30N 29°55' W 089°56'7 5.8
2015-Jul-28 08:22N 29°50' W 089°60'0 0.1
2015-Jul-28 07:09N 29°50' W 090°00'0 0.0
2015-Jul-28 04:24N 29°50' W 090°00'0 0.0
2015-Jul-28 02:21N 29°50' W 090°00'0 0.0
2015-Jul-27 07:31N 29°50' W 089°60'25510.9
2015-Jul-26 08:00N 26°48' W 086°36'36410.5 320 / 191009.010.8 27.826.3
2015-Jul-24 21:24N 25°33' W 079°59'1012.1
2015-Jul-24 20:33N 25°44' W 079°59'1312.9
2015-Jul-24 19:33N 25°57' W 079°60'1212.0
2015-Jul-24 18:33N 26°09' W 079°59'1212.2
2015-Jul-24 17:33N 26°21' W 079°58'1212.1
2015-Jul-24 16:33N 26°33' W 079°58'1111.4
2015-Jul-24 15:33N 26°44' W 079°57'1111.1
2015-Jul-24 14:33N 26°55' W 079°57'1110.7
2015-Jul-24 13:33N 27°06' W 079°57'132 3.1
2015-Jul-22 19:00N 29°18' W 079°54'13016.8 270 / 91014.010.8 1.528.925.9
2015-Jul-22 11:15N 27°09' W 079°40'3118.0
2015-Jul-22 09:32N 26°38' W 079°38'1717.3
2015-Jul-22 08:33N 26°21' W 079°41'1414.5
2015-Jul-22 07:33N 26°11' W 079°53'1313.3
2015-Jul-22 06:33N 26°06' W 080°07'1 0.6
2015-Jul-22 05:26N 26°06' W 080°07'0 0.0
2015-Jul-22 04:29N 26°06' W 080°07'0 0.0
2015-Jul-22 03:29N 26°06' W 080°07'0 0.0
2015-Jul-22 02:29N 26°06' W 080°07'0 0.0
2015-Jul-22 01:32N 26°06' W 080°07'0 0.0
2015-Jul-22 00:32N 26°06' W 080°07'0 0.0
2015-Jul-21 23:32N 26°06' W 080°07'0 0.0
2015-Jul-21 22:32N 26°06' W 080°07'0 0.0
2015-Jul-21 21:32N 26°06' W 080°07'0 0.0
2015-Jul-21 20:32N 26°06' W 080°07'0 0.0
2015-Jul-21 19:32N 26°06' W 080°07'0 0.0
2015-Jul-21 18:20N 26°06' W 080°07'0 0.0
2015-Jul-21 17:26N 26°06' W 080°07'0 0.0
2015-Jul-21 16:26N 26°06' W 080°07'0 0.0
2015-Jul-21 15:26N 26°06' W 080°07'0 0.0
2015-Jul-21 14:29N 26°06' W 080°07'0 0.0
2015-Jul-21 13:29N 26°06' W 080°07'0 0.0
2015-Jul-21 12:29N 26°06' W 080°07'0 0.0
2015-Jul-21 11:32N 26°06' W 080°07'0 0.0
2015-Jul-21 10:32N 26°06' W 080°07'0 0.0
2015-Jul-21 09:32N 26°06' W 080°07'0 0.0
2015-Jul-21 08:32N 26°06' W 080°07'0 0.0
2015-Jul-21 07:32N 26°06' W 080°07'0 0.0
2015-Jul-21 06:32N 26°06' W 080°07'0 0.0
2015-Jul-21 05:32N 26°06' W 080°07'0 0.0
2015-Jul-21 04:23N 26°06' W 080°07'0 0.0
2015-Jul-21 03:20N 26°06' W 080°07'0 0.0
2015-Jul-21 02:33N 26°06' W 080°07'3 3.2
2015-Jul-21 01:33N 26°06' W 080°04'  
Track history (hours):
 
Tides and Currents Weather Stations Pressure Air Temp Water Temp Dewpoint Dewpoint Depression Visibility Wind Speed Wind Dir Waves Ship Positions

Overseas Long Beach

Owner: ASC Leasing II, Inc., Philadelphia, PA. More information available from US FCC via Universal Licensing System and Coast Guard Vessel Documentation Center.

Last reported at 2015-Jul-31 01:29 UTC. Time now 2015-Jul-31 13:24 UTC.
Position N 29°39' W 089°57'.

Length 181 m; draft 7.7 m.

Type: Tanker. MMSI: 367703000.

Date/timePositionNaut miles runAvg speedWind from/ knotsBaromVisibWave heightAir tempDewpointWater temp
2015-Jul-31 01:29N 29°39' W 089°57'19 9.8
2015-Jul-30 23:31N 29°57' W 090°04'  
2015-Jul-28 10:29N 29°55' W 090°05'8 7.7
2015-Jul-28 09:30N 29°55' W 089°56'7 5.8
2015-Jul-28 08:22N 29°50' W 089°60'0 0.1
2015-Jul-28 07:09N 29°50' W 090°00'0 0.0
2015-Jul-28 04:24N 29°50' W 090°00'0 0.0
2015-Jul-28 02:21N 29°50' W 090°00'0 0.0
2015-Jul-27 07:31N 29°50' W 089°60'25510.9
2015-Jul-26 08:00N 26°48' W 086°36'36410.5 320 / 191009.010.8 27.826.3
2015-Jul-24 21:24N 25°33' W 079°59'1012.1
2015-Jul-24 20:33N 25°44' W 079°59'1312.9
2015-Jul-24 19:33N 25°57' W 079°60'1212.0
2015-Jul-24 18:33N 26°09' W 079°59'1212.2
2015-Jul-24 17:33N 26°21' W 079°58'1212.1
2015-Jul-24 16:33N 26°33' W 079°58'1111.4
2015-Jul-24 15:33N 26°44' W 079°57'1111.1
2015-Jul-24 14:33N 26°55' W 079°57'1110.7
2015-Jul-24 13:33N 27°06' W 079°57'132 3.1
2015-Jul-22 19:00N 29°18' W 079°54'13016.8 270 / 91014.010.8 1.528.925.9
2015-Jul-22 11:15N 27°09' W 079°40'3118.0
2015-Jul-22 09:32N 26°38' W 079°38'1717.3
2015-Jul-22 08:33N 26°21' W 079°41'1414.5
2015-Jul-22 07:33N 26°11' W 079°53'1313.3
2015-Jul-22 06:33N 26°06' W 080°07'1 0.6
2015-Jul-22 05:26N 26°06' W 080°07'0 0.0
2015-Jul-22 04:29N 26°06' W 080°07'0 0.0
2015-Jul-22 03:29N 26°06' W 080°07'0 0.0
2015-Jul-22 02:29N 26°06' W 080°07'0 0.0
2015-Jul-22 01:32N 26°06' W 080°07'0 0.0
2015-Jul-22 00:32N 26°06' W 080°07'0 0.0
2015-Jul-21 23:32N 26°06' W 080°07'0 0.0
2015-Jul-21 22:32N 26°06' W 080°07'0 0.0
2015-Jul-21 21:32N 26°06' W 080°07'0 0.0
2015-Jul-21 20:32N 26°06' W 080°07'0 0.0
2015-Jul-21 19:32N 26°06' W 080°07'0 0.0
2015-Jul-21 18:20N 26°06' W 080°07'0 0.0
2015-Jul-21 17:26N 26°06' W 080°07'0 0.0
2015-Jul-21 16:26N 26°06' W 080°07'0 0.0
2015-Jul-21 15:26N 26°06' W 080°07'0 0.0
2015-Jul-21 14:29N 26°06' W 080°07'0 0.0
2015-Jul-21 13:29N 26°06' W 080°07'0 0.0
2015-Jul-21 12:29N 26°06' W 080°07'0 0.0
2015-Jul-21 11:32N 26°06' W 080°07'0 0.0
2015-Jul-21 10:32N 26°06' W 080°07'0 0.0
2015-Jul-21 09:32N 26°06' W 080°07'0 0.0
2015-Jul-21 08:32N 26°06' W 080°07'0 0.0
2015-Jul-21 07:32N 26°06' W 080°07'0 0.0
2015-Jul-21 06:32N 26°06' W 080°07'0 0.0
2015-Jul-21 05:32N 26°06' W 080°07'0 0.0
2015-Jul-21 04:23N 26°06' W 080°07'0 0.0
2015-Jul-21 03:20N 26°06' W 080°07'0 0.0
2015-Jul-21 02:33N 26°06' W 080°07'3 3.2
2015-Jul-21 01:33N 26°06' W 080°04'  

Dump ship's entire track history